Time;durP1;ratioP1;P1;durP2;ratioP2;P2;SDS_P1;SDS_P2;PMS_P1;PMS_P2;Temp;Humidity;BMP_temperature;BMP_pressure;BME280_temperature;BME280_humidity;BME280_pressure;Samples;Min_cycle;Max_cycle;Signal;HPM_P1;HPM_P2
2022/12/01 00:01:39;;;;;;;16.30;3.72;;;;;;;8.67;100.00;101425.25;4920535;29;20039;-93
2022/12/01 00:04:08;;;;;;;15.02;3.40;;;;;;;8.69;100.00;101425.97;4921450;29;20400;-93
2022/12/01 00:06:38;;;;;;;9.90;2.70;;;;;;;8.68;100.00;101421.66;4902398;29;20388;-89
2022/12/01 00:11:57;;;;;;;7.60;2.53;;;;;;;8.72;100.00;101424.06;4914272;29;20492;-89
2022/12/01 00:14:27;;;;;;;16.48;2.65;;;;;;;8.73;100.00;101429.22;4917890;29;20544;-88
2022/12/01 00:16:57;;;;;;;10.68;2.33;;;;;;;8.76;100.00;101425.56;4903808;29;20050;-89
2022/12/01 00:19:27;;;;;;;13.90;2.85;;;;;;;8.78;100.00;101427.13;4917319;29;20511;-89
2022/12/01 00:21:57;;;;;;;14.40;2.60;;;;;;;8.80;100.00;101430.50;4900507;29;20036;-89
2022/12/01 00:24:27;;;;;;;10.23;2.63;;;;;;;8.83;100.00;101436.47;4916030;29;20039;-89
2022/12/01 00:26:56;;;;;;;9.63;1.98;;;;;;;8.80;100.00;101425.22;4885735;29;20043;-89
2022/12/01 00:29:24;;;;;;;9.27;1.88;;;;;;;8.81;100.00;101439.22;4889840;29;20043;-89
2022/12/01 00:31:53;;;;;;;11.07;1.60;;;;;;;8.85;100.00;101447.78;4902913;29;20040;-89
2022/12/01 00:34:26;;;;;;;8.48;1.63;;;;;;;8.88;100.00;101443.13;4910646;29;20031;-89
2022/12/01 00:36:56;;;;;;;16.67;2.20;;;;;;;8.93;100.00;101451.53;4860528;29;20050;-89
2022/12/01 00:39:26;;;;;;;10.88;2.33;;;;;;;8.97;100.00;101456.59;4908293;29;20070;-89
2022/12/01 00:41:56;;;;;;;7.72;1.70;;;;;;;8.99;100.00;101457.34;4896692;29;20389;-89
2022/12/01 00:44:24;;;;;;;8.90;1.40;;;;;;;9.03;100.00;101456.19;4917323;29;20039;-89
2022/12/01 00:46:52;;;;;;;8.40;1.65;;;;;;;9.03;100.00;101454.38;4899175;29;20051;-88
2022/12/01 00:49:20;;;;;;;10.90;1.58;;;;;;;9.09;100.00;101452.25;4910367;29;20175;-89
2022/12/01 00:51:48;;;;;;;6.22;1.05;;;;;;;9.09;100.00;101454.91;4919149;29;20059;-89
2022/12/01 00:54:17;;;;;;;12.00;1.48;;;;;;;9.13;100.00;101453.72;4902736;29;20377;-89
2022/12/01 00:56:46;;;;;;;10.25;1.05;;;;;;;9.12;100.00;101454.69;4898695;29;20118;-89
2022/12/01 00:59:14;;;;;;;8.23;2.20;;;;;;;9.09;100.00;101457.53;4899108;29;20083;-89
2022/12/01 01:01:43;;;;;;;4.35;1.33;;;;;;;9.12;100.00;101446.75;4901981;29;20035;-89
2022/12/01 01:04:13;;;;;;;8.55;1.70;;;;;;;9.13;100.00;101445.81;4917878;29;20092;-89
2022/12/01 01:06:43;;;;;;;7.93;1.33;;;;;;;9.12;100.00;101429.16;4904798;29;20031;-89
2022/12/01 01:09:14;;;;;;;9.85;1.17;;;;;;;9.12;100.00;101430.94;4910837;29;20035;-89
2022/12/01 01:11:44;;;;;;;6.90;1.20;;;;;;;9.11;100.00;101438.00;4904263;29;20047;-88
2022/12/01 01:14:14;;;;;;;9.20;1.10;;;;;;;9.12;100.00;101431.78;4887807;29;20055;-89
2022/12/01 01:16:43;;;;;;;6.70;1.00;;;;;;;9.12;100.00;101428.31;4884999;29;20062;-89
2022/12/01 01:19:13;;;;;;;7.28;1.27;;;;;;;9.09;100.00;101425.88;4904884;29;20070;-88
2022/12/01 01:21:43;;;;;;;11.18;1.25;;;;;;;9.08;100.00;101434.75;4898162;29;20417;-89
2022/12/01 01:24:12;;;;;;;12.07;1.55;;;;;;;9.06;100.00;101434.88;4910216;29;20040;-88
2022/12/01 01:26:40;;;;;;;4.93;1.08;;;;;;;9.04;100.00;101436.78;4915644;29;20117;-89
2022/12/01 01:29:07;;;;;;;8.18;1.20;;;;;;;9.02;100.00;101428.13;4920915;29;20035;-89
2022/12/01 01:31:35;;;;;;;6.93;1.85;;;;;;;9.00;100.00;101427.41;4920578;29;20549;-88
2022/12/01 01:34:03;;;;;;;12.18;1.20;;;;;;;9.03;100.00;101435.09;4910954;29;20503;-89
2022/12/01 01:36:31;;;;;;;10.43;1.55;;;;;;;9.02;100.00;101431.59;4899422;29;20035;-89
2022/12/01 01:39:01;;;;;;;8.98;1.52;;;;;;;9.06;100.00;101419.88;4909096;29;20052;-89
2022/12/01 01:41:30;;;;;;;11.80;1.30;;;;;;;9.09;100.00;101418.81;4885991;29;20067;-89
2022/12/01 01:44:02;;;;;;;7.43;1.27;;;;;;;9.11;100.00;101418.72;4926353;29;20099;-89
2022/12/01 01:46:33;;;;;;;14.80;1.40;;;;;;;9.11;100.00;101424.00;4910836;29;20038;-88
2022/12/01 01:49:07;;;;;;;6.95;1.23;;;;;;;9.09;100.00;101434.66;4909733;29;20040;-89
2022/12/01 01:51:49;;;;;;;7.55;1.38;;;;;;;9.07;100.00;101433.91;4896568;29;20040;-88
2022/12/01 01:54:30;;;;;;;9.65;1.38;;;;;;;9.04;100.00;101431.50;4896558;29;20040;-89
2022/12/01 01:57:00;;;;;;;9.20;1.13;;;;;;;9.03;100.00;101435.91;4912783;29;20367;-89
2022/12/01 01:59:33;;;;;;;18.40;1.75;;;;;;;9.01;100.00;101440.47;4896809;29;20036;-89
2022/12/01 02:02:07;;;;;;;7.88;1.00;;;;;;;9.00;100.00;101446.69;4892001;29;20119;-89
2022/12/01 02:04:41;;;;;;;8.82;1.00;;;;;;;8.99;100.00;101452.06;4905539;29;20480;-88
2022/12/01 02:07:14;;;;;;;9.10;1.40;;;;;;;8.96;100.00;101445.22;4898074;29;20035;-89
2022/12/01 02:09:41;;;;;;;10.52;1.10;;;;;;;8.88;100.00;101445.78;4908004;28;20070;-89
2022/12/01 02:12:15;;;;;;;10.80;1.00;;;;;;;8.87;100.00;101446.69;4943963;29;20509;-89
2022/12/01 02:15:03;;;;;;;8.32;1.40;;;;;;;8.84;100.00;101435.56;4927928;29;20039;-88
2022/12/01 02:18:23;;;;;;;12.18;1.20;;;;;;;8.83;100.00;101441.75;4920249;29;20035;-88
2022/12/01 02:21:27;;;;;;;7.00;1.33;;;;;;;8.84;100.00;101451.38;4918380;29;20043;-88
2022/12/01 02:24:19;;;;;;;6.82;1.08;;;;;;;8.83;100.00;101449.66;4902321;29;20098;-88
2022/12/01 02:27:01;;;;;;;9.98;1.92;;;;;;;8.88;100.00;101463.38;4915101;29;20507;-88
2022/12/01 02:29:37;;;;;;;8.40;1.67;;;;;;;8.88;100.00;101466.00;4903429;29;20091;-89
2022/12/01 02:32:29;;;;;;;8.68;1.38;;;;;;;8.94;100.00;101468.22;4926684;29;20044;-88
2022/12/01 02:35:09;;;;;;;4.35;0.80;;;;;;;8.96;100.00;101466.31;4905586;29;20122;-88
2022/12/01 02:37:51;;;;;;;7.03;1.15;;;;;;;8.99;100.00;101471.38;4893682;29;20086;-88
2022/12/01 02:40:28;;;;;;;6.43;1.10;;;;;;;9.00;100.00;101482.78;4915290;29;20405;-89
2022/12/01 02:43:08;;;;;;;14.70;1.48;;;;;;;9.00;100.00;101472.22;4906181;29;20437;-89
2022/12/01 02:45:48;;;;;;;12.43;1.67;;;;;;;9.00;100.00;101459.88;4894039;29;20048;-88
2022/12/01 02:48:28;;;;;;;8.30;1.15;;;;;;;9.01;100.00;101464.22;4908473;29;20071;-89
2022/12/01 02:51:00;;;;;;;9.48;0.90;;;;;;;9.00;100.00;101464.31;4923509;29;20099;-88
2022/12/01 02:53:30;;;;;;;7.82;1.38;;;;;;;9.00;100.00;101464.31;4910889;29;20031;-89
2022/12/01 02:56:00;;;;;;;10.43;1.38;;;;;;;9.02;100.00;101467.66;4931843;29;20065;-89
2022/12/01 02:58:31;;;;;;;10.18;1.50;;;;;;;9.02;100.00;101462.41;4917463;29;20515;-88
2022/12/01 03:01:42;;;;;;;5.13;1.17;;;;;;;9.03;100.00;101464.09;4918895;29;20035;-88
2022/12/01 03:04:28;;;;;;;12.30;1.42;;;;;;;9.06;100.00;101464.72;4891714;29;20130;-89
2022/12/01 03:07:06;;;;;;;11.23;1.23;;;;;;;9.13;100.00;101469.53;4925017;29;20048;-89
2022/12/01 03:09:56;;;;;;;7.60;1.08;;;;;;;9.15;100.00;101472.91;4914548;29;20035;-89
2022/12/01 03:12:48;;;;;;;4.43;1.02;;;;;;;9.15;100.00;101467.66;4896505;29;20404;-89
2022/12/01 03:15:30;;;;;;;8.95;1.15;;;;;;;9.15;100.00;101467.66;4932400;29;20126;-89
2022/12/01 03:18:13;;;;;;;6.00;0.90;;;;;;;9.16;100.00;101458.78;4926137;29;20040;-88
2022/12/01 03:20:55;;;;;;;14.85;2.30;;;;;;;9.11;100.00;101458.28;4900566;29;20062;-89
2022/12/01 03:23:30;;;;;;;10.43;1.27;;;;;;;9.11;100.00;101468.84;4885795;29;20484;-88
2022/12/01 03:26:05;;;;;;;7.38;1.10;;;;;;;9.11;100.00;101471.47;4923828;29;20489;-89
2022/12/01 03:28:46;;;;;;;8.40;1.48;;;;;;;9.11;100.00;101467.00;4903354;29;20396;-89
2022/12/01 03:31:22;;;;;;;11.95;1.20;;;;;;;9.12;100.00;101471.34;4920464;29;20036;-89
2022/12/01 03:33:58;;;;;;;10.02;1.10;;;;;;;9.10;100.00;101473.25;4886473;29;20049;-88
2022/12/01 03:36:33;;;;;;;12.07;1.75;;;;;;;9.08;100.00;101472.50;4886901;29;20036;-89
2022/12/01 03:39:12;;;;;;;7.57;1.40;;;;;;;9.05;100.00;101470.09;4919018;29;20102;-89
2022/12/01 03:41:48;;;;;;;15.30;1.40;;;;;;;9.04;100.00;101466.63;4901005;29;20046;-89
2022/12/01 03:44:22;;;;;;;11.32;1.30;;;;;;;9.03;100.00;101472.84;4893451;29;20486;-89
2022/12/01 03:46:59;;;;;;;8.10;1.13;;;;;;;9.03;100.00;101467.56;4932944;29;20035;-89
2022/12/01 03:49:29;;;;;;;7.53;1.45;;;;;;;9.03;100.00;101470.19;4894939;29;20183;-89
2022/12/01 03:52:36;;;;;;;9.23;2.03;;;;;;;9.02;100.00;101463.25;4933639;29;20550;-89
2022/12/01 03:55:27;;;;;;;9.70;1.63;;;;;;;9.00;100.00;101466.97;4903672;29;20051;-89
2022/12/01 03:58:03;;;;;;;8.65;1.17;;;;;;;8.98;100.00;101461.75;4916469;29;20047;-89
2022/12/01 04:00:34;;;;;;;13.60;1.55;;;;;;;8.98;100.00;101471.50;4940709;29;20526;-89
2022/12/01 04:03:04;;;;;;;10.35;1.88;;;;;;;8.98;100.00;101472.31;4901044;29;20024;-88
2022/12/01 04:05:35;;;;;;;8.73;1.55;;;;;;;8.98;100.00;101477.59;4900901;29;20121;-89
2022/12/01 04:08:04;;;;;;;18.45;1.40;;;;;;;8.99;100.00;101466.09;4894266;29;20123;-88
2022/12/01 04:10:32;;;;;;;9.10;1.58;;;;;;;8.99;100.00;101470.53;4921364;29;20118;-88
2022/12/01 04:12:59;;;;;;;17.20;1.48;;;;;;;9.01;100.00;101469.50;4902906;29;20082;-89
2022/12/01 04:15:28;;;;;;;9.27;1.42;;;;;;;9.02;100.00;101478.22;4895956;29;20032;-89
2022/12/01 04:17:55;;;;;;;10.27;1.48;;;;;;;9.06;100.00;101472.63;4918951;29;20044;-89
2022/12/01 04:20:23;;;;;;;13.70;1.70;;;;;;;9.08;100.00;101472.50;4886385;29;20082;-89
2022/12/01 04:22:51;;;;;;;11.15;1.48;;;;;;;9.12;100.00;101466.09;4915631;29;20043;-89
2022/12/01 04:25:19;;;;;;;10.13;1.50;;;;;;;9.11;100.00;101459.09;4934524;29;20027;-89
2022/12/01 04:27:46;;;;;;;11.02;1.90;;;;;;;9.11;100.00;101469.66;4911438;29;20102;-88
2022/12/01 04:30:14;;;;;;;8.77;1.60;;;;;;;9.10;100.00;101460.06;4890718;29;20126;-89
2022/12/01 04:32:44;;;;;;;7.82;1.55;;;;;;;9.09;100.00;101455.75;4918126;29;20036;-88
2022/12/01 04:35:14;;;;;;;11.95;2.03;;;;;;;9.05;100.00;101452.47;4907957;29;20039;-88
2022/12/01 04:37:44;;;;;;;9.82;1.30;;;;;;;9.01;100.00;101453.66;4911788;29;20054;-88
2022/12/01 04:40:13;;;;;;;10.57;1.60;;;;;;;9.00;100.00;101456.41;4915672;29;20035;-89
2022/12/01 04:42:42;;;;;;;8.77;1.55;;;;;;;8.97;100.00;101451.31;4900592;29;20051;-89
2022/12/01 04:45:10;;;;;;;5.13;1.17;;;;;;;8.95;100.00;101450.63;4898971;29;20122;-88
2022/12/01 04:47:38;;;;;;;7.65;1.75;;;;;;;8.93;100.00;101450.72;4907916;29;20061;-88
2022/12/01 04:50:06;;;;;;;9.00;1.48;;;;;;;8.90;100.00;101445.66;4904949;29;20879;-89
2022/12/01 04:52:36;;;;;;;12.00;1.15;;;;;;;8.89;100.00;101446.59;4908082;29;20032;-89
2022/12/01 04:55:04;;;;;;;7.82;1.15;;;;;;;8.82;100.00;101446.22;4900181;29;20412;-89
2022/12/01 04:57:31;;;;;;;9.32;1.75;;;;;;;8.83;100.00;101462.84;4883936;29;20057;-88
2022/12/01 04:59:59;;;;;;;8.15;1.10;;;;;;;8.77;100.00;101457.06;4929736;29;20030;-88
2022/12/01 05:02:27;;;;;;;9.52;1.50;;;;;;;8.81;100.00;101457.69;4914221;29;20043;-88
2022/12/01 05:04:55;;;;;;;12.15;1.40;;;;;;;8.76;100.00;101452.72;4894118;29;20424;-89
2022/12/01 05:07:22;;;;;;;6.22;1.17;;;;;;;8.76;100.00;101446.63;4932136;29;20031;-88
2022/12/01 05:09:50;;;;;;;8.82;1.77;;;;;;;8.72;100.00;101437.25;4888820;29;20062;-89
2022/12/01 05:12:18;;;;;;;4.70;1.27;;;;;;;8.73;100.00;101445.03;4922680;29;20042;-89
2022/12/01 05:14:46;;;;;;;9.77;1.48;;;;;;;8.69;100.00;101449.69;4900206;29;20071;-89
2022/12/01 05:17:13;;;;;;;11.85;1.83;;;;;;;8.71;100.00;101446.97;4916247;29;20126;-88
2022/12/01 05:22:30;;;;;;;9.23;1.50;;;;;;;8.67;100.00;101446.31;4904922;29;20063;-88
2022/12/01 05:25:00;;;;;;;7.88;1.23;;;;;;;8.68;100.00;101441.88;4899267;29;20048;-88
2022/12/01 05:27:28;;;;;;;7.05;1.42;;;;;;;8.66;100.00;101441.16;4903726;29;20044;-88
2022/12/01 05:29:56;;;;;;;10.27;1.58;;;;;;;8.64;100.00;101437.78;4887635;29;20035;-89
2022/12/01 05:32:26;;;;;;;6.80;1.42;;;;;;;8.66;100.00;101446.44;4926067;29;20035;-88
2022/12/01 05:34:56;;;;;;;4.60;1.13;;;;;;;8.64;100.00;101443.91;4898081;29;20100;-88
2022/12/01 05:37:27;;;;;;;7.57;1.33;;;;;;;8.66;100.00;101438.53;4905139;29;20044;-88
2022/12/01 05:39:56;;;;;;;10.13;1.42;;;;;;;8.66;100.00;101443.81;4897084;29;20476;-89
2022/12/01 05:42:25;;;;;;;8.05;1.10;;;;;;;8.63;100.00;101439.56;4893222;29;20466;-89
2022/12/01 05:44:53;;;;;;;9.13;1.63;;;;;;;8.61;100.00;101446.75;4872088;29;20119;-88
2022/12/01 05:47:23;;;;;;;9.50;2.17;;;;;;;8.63;100.00;101436.94;4903435;29;20035;-88
2022/12/01 05:49:52;;;;;;;9.30;1.80;;;;;;;8.62;100.00;101443.16;4902581;29;20040;-88
2022/12/01 05:52:22;;;;;;;8.13;1.38;;;;;;;8.62;100.00;101440.53;4889348;29;20390;-88
2022/12/01 05:54:52;;;;;;;7.00;1.50;;;;;;;8.63;100.00;101439.56;4892943;29;20043;-88
2022/12/01 05:57:22;;;;;;;9.55;1.80;;;;;;;8.61;100.00;101449.38;4892708;29;20044;-88
2022/12/01 05:59:51;;;;;;;9.18;1.52;;;;;;;8.60;100.00;101447.69;4888425;29;20111;-88
2022/12/01 06:02:20;;;;;;;8.07;1.80;;;;;;;8.60;100.00;101450.31;4887568;29;20048;-89
2022/12/01 06:04:48;;;;;;;12.75;1.77;;;;;;;8.58;100.00;101460.16;4893425;29;20119;-88
2022/12/01 06:07:18;;;;;;;9.95;1.45;;;;;;;8.60;100.00;101462.69;4880734;29;20043;-88
2022/12/01 06:09:47;;;;;;;8.30;1.70;;;;;;;8.62;100.00;101460.75;4882912;29;20075;-88
2022/12/01 06:12:16;;;;;;;12.57;1.98;;;;;;;8.62;100.00;101463.38;4891493;29;20036;-88
2022/12/01 06:14:44;;;;;;;11.95;1.77;;;;;;;8.62;100.00;101466.03;4887323;29;20400;-89
2022/12/01 06:17:14;;;;;;;6.68;1.75;;;;;;;8.63;100.00;101465.91;4889077;29;20040;-89
2022/12/01 06:19:46;;;;;;;7.45;1.55;;;;;;;8.64;100.00;101467.63;4907469;29;20476;-88
2022/12/01 06:22:16;;;;;;;8.27;1.55;;;;;;;8.65;100.00;101474.56;4886582;29;20080;-89
2022/12/01 06:24:44;;;;;;;7.70;1.92;;;;;;;8.68;100.00;101476.13;4876511;29;20040;-88
2022/12/01 06:27:12;;;;;;;7.88;1.92;;;;;;;8.69;100.00;101475.22;4873936;29;20045;-89
2022/12/01 06:29:40;;;;;;;9.02;1.73;;;;;;;8.71;100.00;101472.47;4886175;29;20036;-88
2022/12/01 06:32:07;;;;;;;14.30;2.05;;;;;;;8.69;100.00;101476.03;4884372;29;20046;-89
2022/12/01 06:34:37;;;;;;;8.82;2.05;;;;;;;8.73;100.00;101474.03;4895547;29;20039;-88
2022/12/01 06:37:07;;;;;;;11.80;1.50;;;;;;;8.73;100.00;101467.94;4895217;29;20131;-89
2022/12/01 06:39:37;;;;;;;8.70;1.90;;;;;;;8.74;100.00;101467.84;4924879;29;20535;-88
2022/12/01 06:42:06;;;;;;;10.20;2.03;;;;;;;8.75;100.00;101477.41;4913504;29;20047;-89
2022/12/01 06:44:33;;;;;;;10.27;1.70;;;;;;;8.72;100.00;101472.38;4925906;29;20027;-88
2022/12/01 06:47:03;;;;;;;8.40;1.90;;;;;;;8.74;100.00;101475.75;4881230;29;20051;-89
2022/12/01 06:49:33;;;;;;;13.45;1.80;;;;;;;8.75;100.00;101476.56;4906558;29;20086;-88
2022/12/01 06:52:03;;;;;;;11.95;2.47;;;;;;;8.76;100.00;101475.63;4903594;29;20044;-89
2022/12/01 06:54:35;;;;;;;16.38;2.13;;;;;;;8.76;100.00;101489.63;4919425;29;20086;-88
2022/12/01 06:57:05;;;;;;;11.80;1.85;;;;;;;8.76;100.00;101479.09;4901984;29;20036;-89
2022/12/01 06:59:35;;;;;;;10.95;2.33;;;;;;;8.77;100.00;101479.94;4918162;29;20459;-89
2022/12/01 07:02:05;;;;;;;13.43;1.85;;;;;;;8.72;100.00;101477.63;4896895;29;20086;-89
2022/12/01 07:04:35;;;;;;;9.68;2.05;;;;;;;8.74;100.00;101483.66;4920062;29;20035;-89
2022/12/01 07:07:06;;;;;;;13.73;2.15;;;;;;;8.75;100.00;101484.47;4912042;29;20067;-89
2022/12/01 07:09:35;;;;;;;8.27;1.85;;;;;;;8.75;100.00;101487.97;4898388;29;20047;-89
2022/12/01 07:12:05;;;;;;;11.63;1.83;;;;;;;8.75;100.00;101492.38;4932580;29;20036;-89
2022/12/01 07:14:32;;;;;;;15.35;2.28;;;;;;;8.75;100.00;101493.25;4903039;29;20043;-88
2022/12/01 07:17:01;;;;;;;14.82;2.80;;;;;;;8.76;100.00;101496.72;4936345;29;20068;-89
2022/12/01 07:19:29;;;;;;;11.38;2.95;;;;;;;8.76;100.00;101494.09;4918578;29;20039;-89
2022/12/01 07:21:57;;;;;;;7.63;1.98;;;;;;;8.77;100.00;101495.75;4907610;29;20333;-88
2022/12/01 07:24:25;;;;;;;15.05;2.55;;;;;;;8.76;100.00;101497.53;4932207;29;20036;-89
2022/12/01 07:26:53;;;;;;;9.45;2.30;;;;;;;8.76;100.00;101497.53;4915358;29;20385;-89
2022/12/01 07:29:21;;;;;;;13.23;2.78;;;;;;;8.75;100.00;101495.88;4906346;29;20556;-89
2022/12/01 07:31:48;;;;;;;12.05;2.20;;;;;;;8.77;100.00;101496.63;4916645;29;20704;-89
2022/12/01 07:34:16;;;;;;;11.68;2.72;;;;;;;8.73;100.00;101491.66;4893934;29;20467;-89
2022/12/01 07:36:44;;;;;;;10.73;2.20;;;;;;;8.76;100.00;101494.09;4923222;29;20563;-89
2022/12/01 07:39:11;;;;;;;13.80;2.67;;;;;;;8.72;100.00;101490.81;4899064;29;20128;-89
2022/12/01 07:41:39;;;;;;;11.95;2.35;;;;;;;8.75;100.00;101489.75;4913313;29;20067;-88
2022/12/01 07:44:07;;;;;;;8.13;2.80;;;;;;;8.73;100.00;101495.13;4895940;29;20065;-88
2022/12/01 07:46:35;;;;;;;7.05;2.42;;;;;;;8.75;100.00;101493.25;4916459;29;20480;-89
2022/12/01 07:49:06;;;;;;;17.17;2.97;;;;;;;8.75;100.00;101493.25;4921217;29;20040;-89
2022/12/01 07:51:36;;;;;;;12.75;2.75;;;;;;;8.75;100.00;101493.25;4897283;29;20444;-89
2022/12/01 07:54:07;;;;;;;12.88;3.03;;;;;;;8.76;100.00;101489.63;4936379;29;20452;-88
2022/12/01 07:56:36;;;;;;;10.98;3.15;;;;;;;8.75;100.00;101489.75;4901724;29;20035;-89
2022/12/01 07:59:05;;;;;;;12.02;2.63;;;;;;;8.74;100.00;101496.84;4890652;29;20039;-89
2022/12/01 08:01:33;;;;;;;10.88;2.83;;;;;;;8.74;100.00;101499.47;4906947;29;20142;-89
2022/12/01 08:04:03;;;;;;;11.57;2.50;;;;;;;8.75;100.00;101498.50;4900304;29;20039;-89
2022/12/01 08:06:33;;;;;;;11.63;2.70;;;;;;;8.75;100.00;101503.78;4905488;29;20083;-88
2022/12/01 08:09:03;;;;;;;10.82;2.50;;;;;;;8.74;100.00;101499.47;4907080;29;20039;-88
2022/12/01 08:11:34;;;;;;;11.25;2.90;;;;;;;8.76;100.00;101497.53;4929150;29;20563;-89
2022/12/01 08:14:04;;;;;;;13.65;3.20;;;;;;;8.76;100.00;101508.09;4908996;29;20039;-89
2022/12/01 08:16:34;;;;;;;8.68;2.90;;;;;;;8.79;100.00;101501.78;4912441;29;20043;-89
2022/12/01 08:19:03;;;;;;;8.80;2.70;;;;;;;8.77;100.00;101501.88;4917222;29;20066;-89
2022/12/01 08:21:31;;;;;;;12.48;3.00;;;;;;;8.79;100.00;101507.06;4900397;29;20028;-89
2022/12/01 08:23:59;;;;;;;7.25;2.38;;;;;;;8.78;100.00;101510.63;4918687;29;20472;-88
2022/12/01 08:26:27;;;;;;;11.02;2.90;;;;;;;8.74;100.00;101502.09;4885807;29;20035;-89
2022/12/01 08:28:56;;;;;;;13.98;3.58;;;;;;;8.77;100.00;101507.16;4905390;29;20043;-89
2022/12/01 08:31:30;;;;;;;12.45;2.92;;;;;;;8.79;100.00;101502.59;4915042;29;20035;-88
2022/12/01 08:34:00;;;;;;;10.85;2.60;;;;;;;8.73;100.00;101508.31;4925561;29;20043;-89
2022/12/01 08:36:29;;;;;;;13.45;3.83;;;;;;;8.76;100.00;101516.00;4896310;29;20066;-89
2022/12/01 08:38:59;;;;;;;12.57;3.10;;;;;;;8.76;100.00;101509.91;4912384;29;20519;-89
2022/12/01 08:41:30;;;;;;;13.05;3.05;;;;;;;8.77;100.00;101512.44;4906530;29;20179;-89
2022/12/01 08:44:00;;;;;;;6.50;3.20;;;;;;;8.80;100.00;101511.38;4902771;29;20040;-89
2022/12/01 08:46:34;;;;;;;13.05;3.10;;;;;;;8.81;100.00;101516.53;4902131;29;20048;-89
2022/12/01 08:49:05;;;;;;;15.63;3.45;;;;;;;8.81;100.00;101515.69;4929809;29;20047;-89
2022/12/01 08:51:35;;;;;;;14.05;3.60;;;;;;;8.82;100.00;101514.75;4918715;29;20039;-89
2022/12/01 08:54:06;;;;;;;9.18;3.05;;;;;;;8.84;100.00;101519.91;4925389;29;20035;-89
2022/12/01 08:56:39;;;;;;;14.25;3.58;;;;;;;8.84;100.00;101523.38;4909975;29;20093;-88
2022/12/01 08:59:09;;;;;;;11.40;3.28;;;;;;;8.85;100.00;101524.22;4911674;29;20098;-89
2022/12/01 09:01:51;;;;;;;9.30;3.13;;;;;;;8.87;100.00;101522.34;4908878;29;20083;-89
2022/12/01 09:04:24;;;;;;;16.02;3.38;;;;;;;8.89;100.00;101523.91;4923589;29;20540;-89
2022/12/01 09:06:56;;;;;;;10.55;2.97;;;;;;;8.91;100.00;101534.34;4930297;29;20399;-89
2022/12/01 09:09:28;;;;;;;18.73;4.30;;;;;;;8.92;100.00;101531.59;4916497;29;20039;-88
2022/12/01 09:11:58;;;;;;;9.68;3.10;;;;;;;8.93;100.00;101529.81;4929637;29;20091;-89
2022/12/01 09:14:27;;;;;;;9.25;3.20;;;;;;;8.95;100.00;101527.91;4932496;29;20504;-89
2022/12/01 09:16:57;;;;;;;9.40;2.67;;;;;;;8.96;100.00;101529.59;4912633;29;20047;-89
2022/12/01 09:19:27;;;;;;;14.52;3.78;;;;;;;8.98;100.00;101532.13;4909112;29;20126;-89
2022/12/01 09:21:57;;;;;;;6.85;2.50;;;;;;;8.98;100.00;101532.13;4937006;29;20496;-89
2022/12/01 09:24:27;;;;;;;9.45;2.90;;;;;;;8.97;100.00;101531.28;4890287;29;20058;-89
2022/12/01 09:26:59;;;;;;;9.75;3.28;;;;;;;9.00;100.00;101524.97;4918622;29;20061;-89
2022/12/01 09:29:29;;;;;;;9.13;3.28;;;;;;;8.98;100.00;101527.69;4901816;29;20039;-89
2022/12/01 09:32:00;;;;;;;9.70;3.97;;;;;;;9.00;100.00;101528.44;4855497;29;20039;-89
2022/12/01 09:34:29;;;;;;;12.10;3.50;;;;;;;9.04;100.00;101536.97;4908546;29;20095;-89
2022/12/01 09:36:57;;;;;;;8.73;3.78;;;;;;;9.03;100.00;101535.31;4904269;29;20043;-89
2022/12/01 09:39:26;;;;;;;6.50;3.22;;;;;;;9.05;100.00;101539.50;4915386;29;20456;-89
2022/12/01 09:42:02;;;;;;;9.88;3.78;;;;;;;9.09;100.00;101531.38;4926533;29;20037;-90
2022/12/01 09:44:49;;;;;;;11.80;3.38;;;;;;;9.13;100.00;101536.34;4921233;29;20094;-89
2022/12/01 09:47:34;;;;;;;7.88;3.40;;;;;;;9.13;100.00;101536.34;4906634;29;20044;-89
2022/12/01 09:50:08;;;;;;;9.02;3.38;;;;;;;9.13;100.00;101532.84;4931703;29;20470;-89
2022/12/01 09:52:47;;;;;;;8.43;3.40;;;;;;;9.16;100.00;101541.41;4916466;29;20031;-89
2022/12/01 09:55:21;;;;;;;11.00;3.58;;;;;;;9.18;100.00;101531.59;4904397;29;20047;-89
2022/12/01 09:57:53;;;;;;;8.50;3.53;;;;;;;9.19;100.00;101535.03;4916699;29;20076;-89
2022/12/01 10:00:27;;;;;;;7.00;3.50;;;;;;;9.23;100.00;101535.69;4912045;29;20084;-89
2022/12/01 10:03:16;;;;;;;12.05;3.20;;;;;;;9.21;100.00;101535.78;4899509;29;20115;-89
2022/12/01 10:05:55;;;;;;;17.15;4.13;;;;;;;9.24;100.00;101537.34;4905532;29;20396;-89
2022/12/01 10:08:33;;;;;;;8.00;3.33;;;;;;;9.25;100.00;101534.63;4903314;29;20114;-89
2022/12/01 10:11:28;;;;;;;11.07;4.10;;;;;;;9.28;100.00;101541.50;4929023;29;20067;-89
2022/12/01 10:13:59;;;;;;;7.60;3.80;;;;;;;9.30;100.00;101545.69;4928574;29;20032;-89
2022/12/01 10:17:02;;;;;;;12.23;4.38;;;;;;;9.33;100.00;101551.72;4908156;29;20035;-88
2022/12/01 10:19:53;;;;;;;14.45;4.53;;;;;;;9.34;100.00;101546.31;4908538;29;20043;-89
2022/12/01 10:23:04;;;;;;;10.00;4.53;;;;;;;9.34;100.00;101545.47;4903407;29;20143;-89
2022/12/01 10:25:39;;;;;;;14.05;4.30;;;;;;;9.40;100.00;101547.69;4829981;29;20133;-89
2022/12/01 10:28:50;;;;;;;15.10;4.25;;;;;;;9.45;100.00;101557.91;4911325;29;20103;-88
2022/12/01 10:31:31;;;;;;;16.40;5.28;;;;;;;9.44;100.00;101549.16;4891717;29;20397;-89
2022/12/01 10:34:13;;;;;;;10.23;4.65;;;;;;;9.46;100.00;101551.69;4910752;29;20240;-89
2022/12/01 10:36:42;;;;;;;16.13;4.90;;;;;;;9.46;100.00;101549.06;4933172;29;20126;-89
2022/12/01 10:39:36;;;;;;;9.77;4.88;;;;;;;9.43;100.00;101537.75;4906089;29;20052;-88
2022/12/01 10:42:12;;;;;;;11.07;4.72;;;;;;;9.46;100.00;101541.13;4902805;29;20191;-89
2022/12/01 10:44:41;;;;;;;13.23;5.40;;;;;;;9.43;100.00;101536.91;4915227;29;20031;-89
2022/12/01 10:47:21;;;;;;;11.60;4.75;;;;;;;9.47;100.00;101526.97;4903135;29;20437;-89
2022/12/01 10:49:49;;;;;;;14.77;5.20;;;;;;;9.47;100.00;101533.09;4899446;29;20039;-89
2022/12/01 10:52:38;;;;;;;14.45;5.15;;;;;;;9.51;100.00;101529.28;4921596;29;20119;-89
2022/12/01 10:55:30;;;;;;;14.20;4.80;;;;;;;9.50;100.00;101530.25;4918397;29;20039;-89
2022/12/01 10:58:05;;;;;;;14.40;5.38;;;;;;;9.52;100.00;101530.13;4916650;29;20046;-89
2022/12/01 11:00:41;;;;;;;13.15;5.13;;;;;;;9.56;100.00;101528.94;4911873;29;20475;-88
2022/12/01 11:03:23;;;;;;;10.40;5.20;;;;;;;9.58;100.00;101528.84;4912025;29;20134;-89
2022/12/01 11:05:56;;;;;;;13.90;5.97;;;;;;;9.60;100.00;101527.78;4930061;29;20035;-88
2022/12/01 11:08:45;;;;;;;9.57;5.25;;;;;;;9.61;100.00;101520.69;4911077;29;20043;-88
2022/12/01 11:11:24;;;;;;;12.70;5.25;;;;;;;9.62;100.00;101525.03;4902987;29;20036;-89
2022/12/01 11:13:57;;;;;;;14.30;5.88;;;;;;;9.64;100.00;101516.03;4876170;29;20074;-89
2022/12/01 11:16:46;;;;;;;10.68;5.40;;;;;;;9.68;100.00;101520.13;4918356;29;20043;-89
2022/12/01 11:19:33;;;;;;;13.80;5.40;;;;;;;9.68;100.00;101506.13;4913817;29;20174;-89
2022/12/01 11:22:18;;;;;;;17.77;5.82;;;;;;;9.72;100.00;101504.91;4906163;29;20170;-89
2022/12/01 11:25:18;;;;;;;11.48;4.85;;;;;;;9.70;100.00;101501.53;4887895;29;20476;-89
2022/12/01 11:27:53;;;;;;;10.98;4.90;;;;;;;9.73;100.00;101501.31;4902924;29;20044;-89
2022/12/01 11:30:24;;;;;;;10.90;4.40;;;;;;;9.78;100.00;101500.97;4921656;29;20495;-89
2022/12/01 11:32:58;;;;;;;9.88;4.90;;;;;;;9.78;100.00;101501.81;4911203;29;20046;-89
2022/12/01 11:35:31;;;;;;;10.02;4.88;;;;;;;9.79;100.00;101498.22;4886751;29;20391;-89
2022/12/01 11:38:04;;;;;;;11.35;4.55;;;;;;;9.80;100.00;101489.38;4901193;29;20043;-89
2022/12/01 11:40:54;;;;;;;8.25;4.38;;;;;;;9.79;100.00;101495.59;4919720;29;20047;-89
2022/12/01 11:43:31;;;;;;;9.65;4.47;;;;;;;9.83;100.00;101487.44;4926677;29;20046;-88
2022/12/01 11:46:07;;;;;;;12.60;4.47;;;;;;;9.90;100.00;101494.81;4902465;29;20437;-89
2022/12/01 11:48:37;;;;;;;10.88;3.92;;;;;;;10.04;100.00;101493.78;4917659;29;20100;-89
2022/12/01 11:51:19;;;;;;;7.75;4.32;;;;;;;10.21;100.00;101494.28;4906061;29;20051;-88
2022/12/01 11:53:49;;;;;;;8.98;3.88;;;;;;;10.32;100.00;101490.84;4915315;29;20055;-89
2022/12/01 11:56:24;;;;;;;6.97;3.83;;;;;;;10.44;100.00;101483.78;4935977;29;20529;-89